Chem Star — V7FI3 — position and weather

sailwx.info

Track history (hours):
 
Tides and Currents Weather Stations Pressure Air Temp Water Temp Dewpoint Dewpoint Depression Visibility Wind Speed Wind Dir Waves Ship Positions

Chem Star

Last reported at 2018-Jul-14 22:00 UTC. Time now 2018-Jul-20 02:44 UTC.
Position N 09°37' W 079°56'.

Length 117 m; draft 6.2 m.

Type: Tanker. MMSI: 538001945.

Date/timePositionNaut miles runAvg speedWind from/ knotsBaromVisibWave heightAir tempDewpointWater temp
2018-Jul-14 22:00N 09°37' W 079°56'510.6
2018-Jul-14 21:29N 09°31' W 079°55'510.0
2018-Jul-14 20:58N 09°26' W 079°55'4 8.4
2018-Jul-14 20:30N 09°23' W 079°55'4 7.2
2018-Jul-14 20:00N 09°19' W 079°55'2 4.5
2018-Jul-14 19:29N 09°17' W 079°55'0 0.3
2018-Jul-14 18:48N 09°16' W 079°55'0 0.5
2018-Jul-14 18:28N 09°16' W 079°55'1 1.3
2018-Jul-14 18:00N 09°16' W 079°55'0 0.3
2018-Jul-14 17:30N 09°15' W 079°55'0 0.2
2018-Jul-14 17:00N 09°15' W 079°55'4 6.0
2018-Jul-14 16:16N 09°12' W 079°53'  
Track history (hours):
 
Tides and Currents Weather Stations Pressure Air Temp Water Temp Dewpoint Dewpoint Depression Visibility Wind Speed Wind Dir Waves Ship Positions

Chem Star

Last reported at 2018-Jul-14 22:00 UTC. Time now 2018-Jul-20 02:44 UTC.
Position N 09°37' W 079°56'.

Length 117 m; draft 6.2 m.

Type: Tanker. MMSI: 538001945.

Date/timePositionNaut miles runAvg speedWind from/ knotsBaromVisibWave heightAir tempDewpointWater temp
2018-Jul-14 22:00N 09°37' W 079°56'510.6
2018-Jul-14 21:29N 09°31' W 079°55'510.0
2018-Jul-14 20:58N 09°26' W 079°55'4 8.4
2018-Jul-14 20:30N 09°23' W 079°55'4 7.2
2018-Jul-14 20:00N 09°19' W 079°55'2 4.5
2018-Jul-14 19:29N 09°17' W 079°55'0 0.3
2018-Jul-14 18:48N 09°16' W 079°55'0 0.5
2018-Jul-14 18:28N 09°16' W 079°55'1 1.3
2018-Jul-14 18:00N 09°16' W 079°55'0 0.3
2018-Jul-14 17:30N 09°15' W 079°55'0 0.2
2018-Jul-14 17:00N 09°15' W 079°55'4 6.0
2018-Jul-14 16:16N 09°12' W 079°53'  

Dump ship's entire track history